• Join FlightAware (Why Join?)
  • Login
  • US Flag 
04:22PM EDT


 

Airport Tracker/Info


-or-


 

Live Flight TrackerFlight Track Log ✈ AAL963 ✈ 28-Sep-2013 ✈ KDFW - SBGR / GRU

Flight Track Log - Related Links

Times and Time Zones

All times are in EDT time to prevent confusion due to time zone crossing. See the AAL963 flight status page for this flight to view local times or setup timezone preferences in your user account.

Time Position Orientation Groundspeed Altitude Reporting Facility
EDT Latitude Longitude Course Direction KTS MPH feet Rate Location/Type
10:39PM 32.9300 -97.0590 343° North 181 208 1,900  Level FlightAware
10:40PM 32.9460 -97.0660 340° North 202 232 2,400 1,320 Climbing FlightAware
10:40PM 32.9620 -97.0710 345° North 222 255 2,700 1,140 Climbing FlightAware
10:40PM 32.9830 -97.0790 342° North 250 288 3,100 1,620 Climbing FlightAware
10:41PM 33.0050 -97.0900 337° Northwest 265 305 3,800 2,100 Climbing FlightAware
10:41PM 33.0130 -97.0980 320° Northwest 273 314 4,100 2,580 Climbing FlightAware
10:41PM 33.0190 -97.1080 306° West 275 316 4,500 3,900 Climbing FlightAware
10:41PM 33.0260 -97.1250 296° West 267 307 5,400 3,900 Climbing FlightAware
10:41PM 33.0280 -97.1350 283° West 261 300 5,800 3,000 Climbing FlightAware
10:41PM 33.0300 -97.1520 278° West 264 304 6,400 2,460 Climbing FlightAware
10:42PM 33.0320 -97.1880 274° West 274 315 7,300 2,460 Climbing FlightAware
10:42PM 33.0260 -97.2340 261° West 274 315 8,700 2,700 Climbing FlightAware
10:42PM 33.0190 -97.2430 227° Southwest 276 318 9,100 1,680 Climbing FlightAware
10:43PM 33.0000 -97.2650 224° Southwest 284 327 9,500 1,560 Climbing FlightAware
10:43PM 32.9640 -97.3050 223° Southwest 297 342 10,600 1,920 Climbing FlightAware
10:44PM 32.9340 -97.3340 219° Southwest 309 356 11,600 2,100 Climbing FlightAware
10:44PM 32.9110 -97.3430 198° South 317 365 12,200 1,980 Climbing FlightAware
10:44PM 32.8960 -97.3440 183° South 326 375 12,500 1,680 Climbing FlightAware
10:45PM 32.8630 -97.3380 171° South 344 396 13,100 1,500 Climbing FlightAware
10:45PM 32.8010 -97.3210 167° South 372 428 14,000 1,800 Climbing FlightAware
10:46PM 32.7400 -97.3050 168° South 381 438 15,300 2,040 Climbing FlightAware
10:46PM 32.6880 -97.2910 167° South 389 448 16,300 1,800 Climbing FlightAware
10:47PM 32.6220 -97.2740 168° South 402 463 17,300 1,740 Climbing FlightAware
10:48PM 32.5560 -97.2760 181° South 400 460 18,400 1,980 Climbing FlightAware
10:48PM 32.4870 -97.2880 188° South 400 460 19,800 1,920 Climbing FlightAware
10:49PM 32.4270 -97.3040 193° South 405 466 20,700 1,620 Climbing FlightAware
10:49PM 32.3600 -97.3200 191° South 411 473 21,700 1,560 Climbing FlightAware
10:50PM 32.2940 -97.3370 192° South 418 481 22,600 1,560 Climbing FlightAware
10:51PM 32.2240 -97.3550 192° South 423 487 23,600 1,380 Climbing FlightAware
10:51PM 32.1630 -97.3700 192° South 430 495 24,200 1,320 Climbing FlightAware
10:52PM 32.0920 -97.3870 191° South 435 501 25,100 1,500 Climbing FlightAware
10:52PM 32.0210 -97.4050 192° South 438 504 26,000 1,500 Climbing FlightAware
10:53PM 31.9560 -97.4210 192° South 439 505 26,800 1,320 Climbing FlightAware
10:53PM 31.8800 -97.4410 193° South 445 512 27,600 1,260 Climbing FlightAware
10:54PM 31.8160 -97.4580 193° South 449 517 28,300 1,140 Climbing FlightAware
10:55PM 31.7450 -97.4770 193° South 453 521 28,900 960 Climbing FlightAware
10:55PM 31.6700 -97.4980 193° South 459 528 29,500 900 Climbing FlightAware
10:56PM 31.5980 -97.5180 193° South 466 536 30,000 840 Climbing FlightAware
10:56PM 31.5240 -97.5380 193° South 471 542 30,500 840 Climbing FlightAware
10:57PM 31.4500 -97.5590 194° South 474 545 31,000 360 Climbing FlightAware
10:58PM 31.3650 -97.6000 202° Southwest 469 540 31,000  Level FlightAware
10:58PM 31.2780 -97.6440 203° Southwest 473 544 31,000  Level FlightAware
10:59PM 31.2030 -97.6820 203° Southwest 476 548 31,000  Level FlightAware
10:59PM 31.1390 -97.7140 203° Southwest 476 548 31,000  Level FlightAware
11:00PM 31.0660 -97.7520 204° Southwest 474 545 31,000  Level FlightAware
11:01PM 30.9740 -97.7990 204° Southwest 475 547 31,000  Level FlightAware
11:02PM 30.8940 -97.8410 204° Southwest 476 548 31,000  Level FlightAware
11:02PM 30.8220 -97.8790 204° Southwest 477 549 31,000  Level FlightAware
11:03PM 30.7570 -97.9120 204° Southwest 477 549 31,000  Level FlightAware
11:03PM 30.7060 -97.9260 193° South 478 550 31,000  Level FlightAware
11:04PM 30.6200 -97.9260 180° South 480 552 31,000  Level FlightAware
11:04PM 30.5420 -97.9210 177° South 480 552 31,000  Level FlightAware
11:05PM 30.4620 -97.8880 160° South 488 562 31,000  Level FlightAware
11:05PM 30.4401 -97.8762 155° Southeast 489 563 31,000  Level FlightAware ADS-B
11:05PM 30.3937 -97.8501 154° Southeast 490 564 31,000  Level FlightAware ADS-B
11:06PM 30.3378 -97.8069 146° Southeast 494 568 31,000  Level FlightAware ADS-B
11:06PM 30.3044 -97.7779 143° Southeast 494 568 31,000  Level FlightAware ADS-B
11:07PM 30.2726 -97.7437 137° Southeast 498 573 31,000  Level FlightAware ADS-B
11:07PM 30.2235 -97.6842 134° Southeast 500 575 31,000  Level FlightAware ADS-B
11:08PM 30.1804 -97.6319 134° Southeast 501 577 31,000  Level FlightAware ADS-B
11:08PM 30.1579 -97.5968 127° Southeast 501 577 31,000  Level FlightAware ADS-B
11:08PM 30.1120 -97.5084 121° Southeast 503 579 31,000  Level FlightAware ADS-B
11:09PM 30.0698 -97.4264 121° Southeast 504 580 31,000  Level FlightAware ADS-B
11:09PM 30.0441 -97.3649 116° Southeast 504 580 31,000  Level FlightAware ADS-B
11:10PM 30.0341 -97.3386 114° Southeast 502 578 31,000  Level FlightAware ADS-B
11:10PM 30.0130 -97.2490 105° East 504 580 31,000  Level FlightAware
11:11PM 30.0030 -97.1500 97° East 506 582 31,000  Level FlightAware
11:11PM 29.9950 -97.0650 96° East 508 585 31,000  Level FlightAware
11:12PM 29.9860 -96.9690 96° East 508 585 31,000  Level FlightAware
11:13PM 29.9750 -96.8470 96° East 511 588 31,000  Level FlightAware
11:13PM 29.9670 -96.7590 96° East 513 590 31,000  Level FlightAware
11:14PM 29.9580 -96.6660 96° East 517 595 31,000  Level FlightAware
11:14PM 29.9490 -96.5700 96° East 518 596 31,000  Level FlightAware
11:15PM 29.9380 -96.4510 96° East 516 594 31,000  Level FlightAware
11:16PM 29.9290 -96.3500 96° East 512 589 31,000  Level FlightAware
11:16PM 29.9200 -96.2610 97° East 512 589 31,000  Level FlightAware
11:17PM 29.9110 -96.1700 96° East 510 587 31,000  Level FlightAware
11:17PM 29.9020 -96.0700 96° East 510 587 31,000  Level FlightAware
11:18PM 29.8920 -95.9730 97° East 511 588 31,000  Level FlightAware
11:19PM 29.8830 -95.8760 96° East 508 585 31,000  Level FlightAware
11:19PM 29.8740 -95.7890 97° East 508 585 31,000  Level FlightAware
11:20PM 29.8640 -95.6960 97° East 506 582 31,000  Level FlightAware
11:20PM 29.8560 -95.6160 97° East 505 581 31,000  Level FlightAware
11:21PM 29.8460 -95.5110 96° East 503 579 31,000  Level FlightAware
11:22PM 29.8360 -95.4130 97° East 502 578 31,000  Level FlightAware
11:22PM 29.8270 -95.3280 97° East 503 579 31,000  Level FlightAware
11:22PM 29.8227 -95.2878 97° East 503 579 31,000  Level FlightAware ADS-B (KHOU)
11:23PM 29.8121 -95.1865 97° East 502 578 31,000  Level FlightAware ADS-B (KHOU)
11:24PM 29.8009 -95.0803 97° East 501 577 31,000  Level FlightAware ADS-B (KHOU)
11:24PM 29.7935 -95.0095 97° East 501 577 31,000  Level FlightAware ADS-B (KHOU)
11:25PM 29.7839 -94.9192 97° East 501 577 31,000  Level FlightAware ADS-B (KHOU)
11:26PM 29.7680 -94.7680 97° East 502 578 31,000  Level FlightAware
11:26PM 29.7615 -94.7149 98° East 504 580 31,000  Level FlightAware ADS-B (KHOU)
11:27PM 29.7330 -94.6290 111° Southeast 500 575 31,000  Level FlightAware
11:27PM 29.7100 -94.5930 126° Southeast 499 574 31,000  Level FlightAware
11:27PM 29.6763 -94.5573 137° Southeast 498 573 31,000  Level FlightAware ADS-B (KHOU)
11:28PM 29.6010 -94.4896 142° Southeast 500 575 31,000  Level FlightAware ADS-B (KHOU)
11:28PM 29.5462 -94.4412 142° Southeast 499 574 31,000  Level FlightAware ADS-B (KHOU)
11:29PM 29.4799 -94.3827 142° Southeast 498 573 31,000  Level FlightAware ADS-B (KHOU)
11:30PM 29.3870 -94.2980 142° Southeast 495 570 31,000  Level FlightAware
11:31PM 29.3310 -94.2460 141° Southeast 495 570 31,000  Level FlightAware
11:31PM 29.2770 -94.1960 141° Southeast 495 570 31,000  Level FlightAware
11:32PM 29.2220 -94.1450 141° Southeast 495 570 31,000  Level FlightAware
11:32PM 29.1680 -94.0950 141° Southeast 495 570 31,000  Level FlightAware
11:33PM 29.1120 -94.0430 141° Southeast 495 570 31,000  Level FlightAware
11:34PM 29.0570 -93.9920 141° Southeast 495 570 31,000  Level FlightAware
11:34PM 29.0030 -93.9420 141° Southeast 495 570 31,000  Level FlightAware
11:35PM 28.9480 -93.8910 141° Southeast 495 570 31,000  Level FlightAware
11:35PM 28.8940 -93.8410 141° Southeast 495 570 31,000  Level FlightAware
11:36PM 28.8390 -93.7910 141° Southeast 495 570 31,000  Level FlightAware
11:37PM 28.7850 -93.7400 140° Southeast 495 570 31,000  Level FlightAware
11:37PM 28.7300 -93.6900 141° Southeast 495 570 31,000  Level FlightAware
11:38PM 28.6760 -93.6400 141° Southeast 495 570 31,000  Level FlightAware
11:38PM 28.6220 -93.5900 141° Southeast 495 570 31,000  Level FlightAware
11:39PM 28.5670 -93.5390 141° Southeast 495 570 31,000  Level FlightAware
11:40PM 28.2881 -93.2486 141° Southeast 493 567 31,000 -60 Level Houston Center
11:41PM 28.1792 -93.1469 141° Southeast 492 566 30,900  Descending Houston Center
11:42PM 28.0747 -93.0486 140° Southeast 490 564 31,000  Climbing Houston Center
11:44PM 27.9804 -92.9095 128° Southeast  Level FlightAware Approximate
11:51PM 27.3366 -92.1178 136° Southeast  Level FlightAware Approximate
11:52PM 27.2386 -92.0113 136° Southeast  Level FlightAware Approximate
11:53PM 27.1371 -91.9096 144° Southeast  Level FlightAware Approximate
11:54PM 27.0289 -91.8229 144° Southeast  Level FlightAware Approximate
11:55PM 26.9207 -91.7363 145° Southeast  Level FlightAware Approximate
11:56PM 26.8124 -91.6500 145° Southeast  Level FlightAware Approximate
11:57PM 26.7041 -91.5638 145° Southeast  Level FlightAware Approximate
11:58PM 26.5958 -91.4777 145° Southeast  Level FlightAware Approximate
11:59PM 26.4873 -91.3918 145° Southeast  Level FlightAware Approximate
12:00AM 26.3789 -91.3061 145° Southeast  Level FlightAware Approximate
12:01AM 26.2704 -91.2205 145° Southeast  Level FlightAware Approximate
12:02AM 26.1618 -91.1350 145° Southeast  Level FlightAware Approximate
12:03AM 26.0532 -91.0497 145° Southeast  Level FlightAware Approximate
12:04AM 25.9446 -90.9645 145° Southeast  Level FlightAware Approximate
12:05AM 25.8359 -90.8795 145° Southeast  Level FlightAware Approximate
12:06AM 25.7272 -90.7947 145° Southeast  Level FlightAware Approximate
12:07AM 25.6184 -90.7100 145° Southeast  Level FlightAware Approximate
12:08AM 25.5096 -90.6254 145° Southeast  Level FlightAware Approximate
12:09AM 25.4007 -90.5410 145° Southeast  Level FlightAware Approximate
12:10AM 25.2918 -90.4568 145° Southeast  Level FlightAware Approximate
12:11AM 25.1829 -90.3727 145° Southeast  Level FlightAware Approximate
12:12AM 25.0739 -90.2888 145° Southeast  Level FlightAware Approximate
12:13AM 24.9648 -90.2050 145° Southeast  Level FlightAware Approximate
12:14AM 24.8557 -90.1214 145° Southeast  Level FlightAware Approximate
12:15AM 24.7465 -90.0379 145° Southeast  Level FlightAware Approximate
12:16AM 24.6373 -89.9546 145° Southeast  Level FlightAware Approximate
12:17AM 24.5281 -89.8714 145° Southeast  Level FlightAware Approximate
12:18AM 24.4270 -89.7769 138° Southeast  Level FlightAware Approximate
12:19AM 24.3288 -89.6787 138° Southeast  Level FlightAware Approximate
12:20AM 24.2321 -89.5787 136° Southeast  Level FlightAware Approximate
12:21AM 24.1361 -89.4779 136° Southeast  Level FlightAware Approximate
12:22AM 24.0400 -89.3774 136° Southeast  Level FlightAware Approximate
12:23AM 23.9439 -89.2769 136° Southeast  Level FlightAware Approximate
12:24AM 23.8481 -89.1763 136° Southeast  Level FlightAware Approximate
12:24AM 23.5950 -89.1690 136° Southeast 498 573 31,000  Level FlightAware
12:25AM 23.5100 -89.1060 146° Southeast 498 573 31,000  Level FlightAware
12:26AM 23.3770 -89.0060 145° Southeast 496 571 31,000  Level FlightAware
12:27AM 23.3040 -88.9520 146° Southeast 498 573 31,000  Level FlightAware
12:27AM 23.2130 -88.8840 146° Southeast 499 574 31,000  Level FlightAware
12:28AM 23.1310 -88.8230 146° Southeast 499 574 31,000  Level FlightAware
12:29AM 23.0610 -88.7710 146° Southeast 497 572 31,000  Level FlightAware
12:29AM 22.9200 -88.6670 146° Southeast 495 570 31,000  Level FlightAware
12:30AM 22.9340 -88.6770 327° Northwest 495 570 31,000  Level FlightAware
12:31AM 22.8400 -88.6070 146° Southeast 495 570 31,000  Level FlightAware
12:32AM 22.6870 -88.4940 146° Southeast 498 573 31,000 840 Level FlightAware
12:32AM 22.6190 -88.4440 146° Southeast 494 568 32,100 1,800 Climbing FlightAware
12:33AM 22.5590 -88.3900 140° Southeast 487 560 33,000 720 Climbing FlightAware
12:33AM 22.5000 -88.3300 137° Southeast 483 556 33,000  Level FlightAware
12:34AM 22.4840 -88.3140 137° Southeast 483 556 33,000  Level FlightAware
12:35AM 22.4200 -88.2480 136° Southeast 484 557 33,000  Level FlightAware
12:35AM 22.3640 -88.1910 137° Southeast 485 558 33,000  Level FlightAware
12:36AM 22.3170 -88.1440 137° Southeast 484 557 33,000  Level FlightAware
12:36AM 22.2540 -88.0800 137° Southeast 486 559 33,000  Level FlightAware
12:37AM 22.1840 -88.0080 136° Southeast 486 559 33,000  Level FlightAware
12:38AM 22.1230 -87.9480 138° Southeast 486 559 33,000  Level FlightAware
12:38AM 22.0650 -87.8900 137° Southeast 486 559 33,000  Level FlightAware
12:39AM 21.9990 -87.8240 137° Southeast 485 558 33,000  Level FlightAware
12:40AM 21.9240 -87.7460 136° Southeast 486 559 33,000  Level FlightAware
12:41AM 21.8240 -87.6480 138° Southeast 484 557 33,000  Level FlightAware
12:41AM 21.7670 -87.5910 137° Southeast 484 557 33,000  Level FlightAware
12:42AM 21.6550 -87.4790 137° Southeast 484 557 33,000  Level FlightAware
12:42AM 21.5900 -87.4150 138° Southeast 483 556 33,000  Level FlightAware
12:43AM 21.5300 -87.3560 138° Southeast 482 555 33,000  Level FlightAware
12:44AM 21.4750 -87.3010 137° Southeast 481 554 33,000  Level FlightAware
12:44AM 21.4210 -87.2480 138° Southeast 481 554 33,000  Level FlightAware
12:45AM 21.3610 -87.1890 138° Southeast 481 554 33,000  Level FlightAware
12:45AM 21.2980 -87.1290 138° Southeast 487 560 33,000  Level FlightAware
12:46AM 21.2380 -87.0930 151° Southeast 492 566 33,000  Level FlightAware
12:47AM 21.1620 -87.0530 154° Southeast 493 567 33,000  Level FlightAware
12:47AM 21.0840 -87.0180 157° South 496 571 33,000  Level FlightAware
12:48AM 21.0110 -86.9800 154° Southeast 494 568 33,000  Level FlightAware
12:48AM 20.9460 -86.9430 152° Southeast 494 568 33,000  Level FlightAware
12:49AM 20.8790 -86.8930 145° Southeast 490 564 33,000  Level FlightAware
12:49AM 20.8160 -86.8350 139° Southeast 487 560 33,000  Level FlightAware
12:50AM 20.7620 -86.7720 133° Southeast 485 558 33,000  Level FlightAware
12:51AM 20.7200 -86.7210 131° Southeast 485 558 33,000  Level FlightAware
12:51AM 20.6620 -86.6510 132° Southeast 487 560 33,000  Level FlightAware
12:52AM 20.6130 -86.5920 132° Southeast 486 559 33,000  Level FlightAware
12:52AM 20.5610 -86.5300 132° Southeast 489 563 33,000  Level FlightAware
12:53AM 20.5050 -86.4630 132° Southeast 488 562 33,000  Level FlightAware
12:54AM 20.4440 -86.3900 132° Southeast 486 559 33,000  Level FlightAware
12:54AM 20.3800 -86.3130 132° Southeast 485 558 33,000  Level FlightAware
12:55AM 20.3170 -86.2380 132° Southeast 485 558 33,000  Level FlightAware
12:56AM 20.2640 -86.1760 132° Southeast 485 558 33,000  Level FlightAware
12:56AM 20.2070 -86.1090 132° Southeast 487 560 33,000  Level FlightAware
12:57AM 20.1590 -86.0520 132° Southeast 489 563 33,000  Level FlightAware
12:57AM 20.0990 -85.9810 132° Southeast 490 564 33,000  Level FlightAware
12:58AM 20.0500 -85.9240 132° Southeast 491 565 33,000  Level FlightAware
12:59AM 19.9910 -85.8620 135° Southeast 493 567 33,000  Level FlightAware
12:59AM 19.9290 -85.8030 138° Southeast 494 568 33,000  Level FlightAware
01:00AM 19.8770 -85.7540 138° Southeast 495 570 33,000  Level FlightAware
01:00AM 19.8120 -85.6930 139° Southeast 496 571 33,000  Level FlightAware
01:01AM 19.7510 -85.6360 139° Southeast 496 571 33,000  Level FlightAware
01:02AM 19.6730 -85.5620 138° Southeast 496 571 33,000  Level FlightAware
01:02AM 19.6070 -85.5000 138° Southeast 497 572 33,000  Level FlightAware
01:03AM 19.5370 -85.4350 139° Southeast 495 570 33,000  Level FlightAware
01:04AM 19.4760 -85.3780 139° Southeast 498 573 33,000  Level FlightAware
01:04AM 19.4210 -85.3260 138° Southeast 499 574 33,000  Level FlightAware
01:05AM 19.3420 -85.2520 139° Southeast 500 575 33,000  Level FlightAware
01:06AM 19.2890 -85.2010 138° Southeast 500 575 33,000  Level FlightAware
01:06AM 19.2360 -85.1510 138° Southeast 500 575 33,000  Level FlightAware
01:07AM 19.1840 -85.1010 138° Southeast 500 575 33,000  Level FlightAware
01:07AM 19.1310 -85.0510 138° Southeast 500 575 33,000  Level FlightAware
01:08AM 19.0790 -85.0010 138° Southeast 500 575 33,000  Level FlightAware
01:09AM 19.0260 -84.9510 138° Southeast 500 575 33,000  Level FlightAware
01:09AM 18.9730 -84.9010 138° Southeast 500 575 33,000  Level FlightAware
01:10AM 18.9210 -84.8510 138° Southeast 500 575 33,000  Level FlightAware
01:10AM 18.8680 -84.8000 138° Southeast 500 575 33,000  Level FlightAware
01:11AM 18.8080 -84.7430 138° Southeast 500 575 33,000  Level FlightAware
01:12AM 18.7560 -84.6930 138° Southeast 500 575 33,000  Level FlightAware
01:12AM 18.7030 -84.6430 138° Southeast 500 575 33,000  Level FlightAware
01:13AM 18.6500 -84.5930 138° Southeast 500 575 33,000  Level FlightAware
01:13AM 18.5980 -84.5430 138° Southeast 500 575 33,000  Level FlightAware
01:14AM 18.5450 -84.4940 139° Southeast 500 575 33,000  Level FlightAware
01:17AM 18.3013 -84.2551 137° Southeast  Level Estimated
01:18AM 18.2038 -84.1597 137° Southeast  Level Estimated
01:19AM 18.1062 -84.0645 137° Southeast  Level Estimated
01:20AM 18.0085 -83.9693 137° Southeast  Level Estimated
01:21AM 17.9108 -83.8743 137° Southeast  Level Estimated
01:22AM 17.8131 -83.7793 137° Southeast  Level Estimated
01:23AM 17.7153 -83.6845 137° Southeast  Level Estimated
01:24AM 17.6175 -83.5898 137° Southeast  Level Estimated
01:25AM 17.5197 -83.4953 137° Southeast  Level Estimated
01:26AM 17.4220 -83.4009 137° Southeast  Level Estimated
01:27AM 17.3242 -83.3066 137° Southeast  Level Estimated
01:28AM 17.2263 -83.2125 137° Southeast  Level Estimated
01:29AM 17.1285 -83.1184 137° Southeast  Level Estimated
01:30AM 17.0305 -83.0244 137° Southeast  Level Estimated
01:31AM 16.9326 -82.9306 137° Southeast  Level Estimated
01:32AM 16.8345 -82.8368 138° Southeast  Level Estimated
01:33AM 16.7365 -82.7431 138° Southeast  Level Estimated
01:34AM 16.6384 -82.6496 138° Southeast  Level Estimated
01:35AM 16.5402 -82.5561 138° Southeast  Level Estimated
01:36AM 16.4421 -82.4627 138° Southeast  Level Estimated
01:37AM 16.3438 -82.3694 138° Southeast  Level Estimated
01:38AM 16.2456 -82.2762 138° Southeast  Level Estimated
01:39AM 16.1472 -82.1831 138° Southeast  Level Estimated
01:40AM 16.0489 -82.0901 138° Southeast  Level Estimated
01:41AM 15.9505 -81.9971 138° Southeast  Level Estimated
01:42AM 15.8521 -81.9043 138° Southeast  Level Estimated
01:43AM 15.7536 -81.8116 138° Southeast  Level Estimated
01:44AM 15.6551 -81.7189 138° Southeast  Level Estimated
01:45AM 15.5565 -81.6264 138° Southeast  Level Estimated
01:46AM 15.4580 -81.5339 138° Southeast  Level Estimated
01:47AM 15.3593 -81.4415 138° Southeast  Level Estimated
01:48AM 15.2607 -81.3492 138° Southeast  Level Estimated
01:49AM 15.1620 -81.2570 138° Southeast  Level Estimated
01:50AM 15.0632 -81.1649 138° Southeast  Level Estimated
01:51AM 14.9645 -81.0729 138° Southeast  Level Estimated
01:52AM 14.8657 -80.9809 138° Southeast  Level Estimated
01:53AM 14.7668 -80.8890 138° Southeast  Level Estimated
01:54AM 14.6679 -80.7972 138° Southeast  Level Estimated
01:55AM 14.5690 -80.7055 138° Southeast  Level Estimated
01:56AM 14.4701 -80.6139 138° Southeast  Level Estimated
01:57AM 14.3711 -80.5224 138° Southeast  Level Estimated
01:58AM 14.2720 -80.4309 138° Southeast  Level Estimated
01:59AM 14.1730 -80.3395 138° Southeast  Level Estimated
02:00AM 14.0739 -80.2482 138° Southeast  Level Estimated
02:01AM 13.9748 -80.1570 138° Southeast  Level Estimated
02:02AM 13.8756 -80.0659 138° Southeast  Level Estimated
02:03AM 13.7764 -79.9748 138° Southeast  Level Estimated
02:04AM 13.6772 -79.8838 138° Southeast  Level Estimated
02:05AM 13.5779 -79.7929 138° Southeast  Level Estimated
02:06AM 13.4786 -79.7021 138° Southeast  Level Estimated
02:07AM 13.3793 -79.6113 138° Southeast  Level Estimated
02:08AM 13.2799 -79.5207 138° Southeast  Level Estimated
02:09AM 13.1805 -79.4300 138° Southeast  Level Estimated
02:10AM 13.0811 -79.3395 138° Southeast  Level Estimated
02:11AM 12.9817 -79.2490 138° Southeast  Level Estimated
02:12AM 12.8822 -79.1587 138° Southeast  Level Estimated
02:13AM 12.7826 -79.0683 138° Southeast  Level Estimated
02:14AM 12.6831 -78.9781 139° Southeast  Level Estimated
02:15AM 12.5835 -78.8879 139° Southeast  Level Estimated
02:16AM 12.4839 -78.7978 139° Southeast  Level Estimated
02:17AM 12.3843 -78.7078 139° Southeast  Level Estimated
02:18AM 12.2846 -78.6178 139° Southeast  Level Estimated
02:19AM 12.1849 -78.5279 139° Southeast  Level Estimated
02:20AM 12.0852 -78.4381 139° Southeast  Level Estimated
02:21AM 11.9854 -78.3483 139° Southeast  Level Estimated
02:22AM 11.8856 -78.2586 139° Southeast  Level Estimated
02:23AM 11.7858 -78.1690 139° Southeast  Level Estimated
02:24AM 11.6860 -78.0794 139° Southeast  Level Estimated
02:25AM 11.5861 -77.9899 139° Southeast  Level Estimated
02:26AM 11.4862 -77.9005 139° Southeast  Level Estimated
02:27AM 11.3863 -77.8111 139° Southeast  Level Estimated
02:28AM 11.2863 -77.7218 139° Southeast  Level Estimated
02:29AM 11.1864 -77.6325 139° Southeast  Level Estimated
02:29AM 10.7610 -77.4590 139° Southeast 476 548 33,000  Level FlightAware
02:30AM 11.0867 -77.5436 139° Southeast  Level Estimated
02:30AM 10.6960 -77.4110 144° Southeast 478 550 33,000  Level FlightAware
02:30AM 10.6340 -77.3650 144° Southeast 478 550 33,000  Level FlightAware
02:31AM 10.5720 -77.3180 143° Southeast 478 550 33,000  Level FlightAware
02:32AM 10.5180 -77.2770 143° Southeast 478 550 33,000  Level FlightAware
02:32AM 10.4380 -77.2270 148° Southeast 475 547 33,000  Level FlightAware
02:33AM 10.3710 -77.1780 144° Southeast 474 545 33,000  Level FlightAware
02:33AM 10.2930 -77.1250 146° Southeast 475 547 33,000  Level FlightAware
02:34AM 10.2280 -77.0800 146° Southeast 475 547 33,000  Level FlightAware
02:35AM 10.1760 -77.0430 145° Southeast 474 545 33,000  Level FlightAware
02:35AM 10.1090 -76.9960 145° Southeast 473 544 33,000  Level FlightAware
02:36AM 10.0260 -76.9370 145° Southeast 481 554 33,000  Level FlightAware
02:37AM 9.9530 -76.8860 145° Southeast 473 544 33,000  Level FlightAware
02:37AM 9.8720 -76.8300 146° Southeast 473 544 33,000  Level FlightAware
02:38AM 9.8150 -76.7910 146° Southeast 473 544 33,000  Level FlightAware
02:38AM 9.7540 -76.7480 145° Southeast 474 545 33,000  Level FlightAware
02:39AM 9.6880 -76.7030 146° Southeast 474 545 33,000  Level FlightAware
02:40AM 9.6250 -76.6600 146° Southeast 475 547 33,000  Level FlightAware
02:40AM 9.5560 -76.6150 147° Southeast 476 548 33,000  Level FlightAware
02:41AM 9.5000 -76.5780 147° Southeast 476 548 33,000  Level FlightAware
02:42AM 9.4410 -76.5400 148° Southeast 476 548 33,000  Level FlightAware
02:42AM 9.3850 -76.5030 147° Southeast 476 548 33,000  Level FlightAware
02:43AM 9.3280 -76.4660 147° Southeast 476 548 33,000  Level FlightAware
02:43AM 9.2720 -76.4280 146° Southeast 476 548 33,000  Level FlightAware
02:44AM 9.2140 -76.3900 147° Southeast 476 548 33,000  Level FlightAware
02:45AM 9.1570 -76.3530 147° Southeast 476 548 33,000  Level FlightAware
02:45AM 9.1010 -76.3160 147° Southeast 476 548 33,000  Level FlightAware
02:46AM 9.0440 -76.2790 147° Southeast 476 548 33,000  Level FlightAware
02:46AM 8.9880 -76.2410 146° Southeast 476 548 33,000  Level FlightAware
02:47AM 8.9310 -76.2040 147° Southeast 476 548 33,000  Level FlightAware
02:48AM 8.8730 -76.1660 147° Southeast 476 548 33,000  Level FlightAware
02:48AM 8.8170 -76.1290 147° Southeast 476 548 33,000  Level FlightAware
02:49AM 8.7600 -76.0920 147° Southeast 476 548 33,000  Level FlightAware
02:49AM 8.7040 -76.0550 147° Southeast 476 548 33,000  Level FlightAware
02:52AM 8.4904 -75.8646 139° Southeast  Level Estimated
02:53AM 8.3910 -75.7761 139° Southeast  Level Estimated
02:53AM 8.6130 -75.3350 139° Southeast 33,000  Level FlightAware
02:53AM 8.5950 -75.2890 112° Southeast 482 555 33,000  Level FlightAware
02:53AM 8.5670 -75.2380 119° Southeast 483 556 33,000  Level FlightAware
02:54AM 8.5240 -75.1880 131° Southeast 484 557 33,000  Level FlightAware
02:54AM 8.4700 -75.1370 137° Southeast 485 558 33,000  Level FlightAware
02:55AM 8.4110 -75.0810 137° Southeast 485 558 33,000  Level FlightAware
02:56AM 8.3420 -75.0160 137° Southeast 486 559 33,000  Level FlightAware
02:56AM 8.2920 -74.9700 138° Southeast 487 560 33,000  Level FlightAware
02:57AM 8.2370 -74.9170 136° Southeast 486 559 33,000  Level FlightAware
02:57AM 8.1770 -74.8610 137° Southeast 485 558 33,000  Level FlightAware
02:58AM 8.1200 -74.8070 137° Southeast 484 557 33,000  Level FlightAware
02:58AM 8.0650 -74.7550 137° Southeast 484 557 33,000  Level FlightAware
02:59AM 8.0050 -74.6990 137° Southeast 482 555 33,000  Level FlightAware
03:00AM 7.9260 -74.6240 137° Southeast 482 555 33,000  Level FlightAware
03:01AM 7.8760 -74.5770 137° Southeast 482 555 33,000  Level FlightAware
03:01AM 7.8260 -74.5300 137° Southeast 482 555 33,000  Level FlightAware
03:02AM 7.7790 -74.4860 137° Southeast 482 555 33,000  Level FlightAware
03:02AM 7.7290 -74.4390 137° Southeast 482 555 33,000  Level FlightAware
03:03AM 7.6260 -74.3470 138° Southeast 486 559 33,000  Level FlightAware
03:04AM 7.5660 -74.2930 138° Southeast 484 557 33,000  Level FlightAware
03:04AM 7.5070 -74.2390 138° Southeast 484 557 33,000  Level FlightAware
03:05AM 7.4490 -74.1870 138° Southeast 484 557 33,000  Level FlightAware
03:05AM 7.3850 -74.1280 138° Southeast 483 556 33,000  Level FlightAware
03:06AM 7.3320 -74.0810 139° Southeast 483 556 33,000  Level FlightAware
03:07AM 7.2410 -73.9980 138° Southeast 482 555 33,000  Level FlightAware
03:07AM 7.1700 -73.9340 138° Southeast 483 556 33,000  Level FlightAware
03:08AM 7.1110 -73.8800 138° Southeast 483 556 33,000  Level FlightAware
03:09AM 7.0600 -73.8340 138° Southeast 483 556 33,000  Level FlightAware
03:09AM 7.0090 -73.7880 138° Southeast 483 556 33,000  Level FlightAware
03:10AM 6.9580 -73.7420 138° Southeast 483 556 33,000  Level FlightAware
03:11AM 6.8300 -73.6980 161° South 830 955 33,000  Level FlightAware
03:11AM 6.7770 -73.6700 152° Southeast 486 559 33,000  Level FlightAware
03:12AM 6.7160 -73.6360 151° Southeast 485 558 33,000  Level FlightAware
03:12AM 6.6430 -73.5970 152° Southeast 485 558 33,000  Level FlightAware
03:13AM 6.5720 -73.5580 151° Southeast 485 558 33,000  Level FlightAware
03:13AM 6.5140 -73.5150 144° Southeast 485 558 33,000  Level FlightAware
03:14AM 6.4500 -73.4670 143° Southeast 484 557 33,000  Level FlightAware
03:14AM 6.3860 -73.4170 142° Southeast 482 555 33,000  Level FlightAware
03:15AM 6.3210 -73.3680 143° Southeast 482 555 33,000  Level FlightAware
03:16AM 6.2640 -73.3240 142° Southeast 480 552 33,000  Level FlightAware
03:16AM 6.2050 -73.2780 142° Southeast 479 551 33,000  Level FlightAware
03:17AM 6.1520 -73.2360 142° Southeast 479 551 33,000  Level FlightAware
03:17AM 6.0980 -73.1940 142° Southeast 479 551 33,000  Level FlightAware
03:18AM 6.0450 -73.1520 142° Southeast 479 551 33,000  Level FlightAware
03:19AM 5.9910 -73.1100 142° Southeast 479 551 33,000  Level FlightAware
03:19AM 5.9380 -73.0680 142° Southeast 479 551 33,000  Level FlightAware
03:20AM 5.8850 -73.0260 142° Southeast 479 551 33,000  Level FlightAware
03:20AM 5.8310 -72.9840 142° Southeast 479 551 33,000  Level FlightAware
03:21AM 5.7760 -72.9410 142° Southeast 479 551 33,000  Level FlightAware
03:22AM 5.7230 -72.8990 142° Southeast 479 551 33,000  Level FlightAware
03:22AM 5.6680 -72.8560 142° Southeast 479 551 33,000  Level FlightAware
03:23AM 5.4820 -72.7110 142° Southeast 479 551 33,000  Level FlightAware
03:24AM 5.4210 -72.6630 142° Southeast 479 551 33,000  Level FlightAware
03:24AM 5.3700 -72.6220 141° Southeast 479 551 33,000  Level FlightAware
03:25AM 5.3180 -72.5790 141° Southeast 479 551 33,000  Level FlightAware
03:25AM 5.2650 -72.5370 142° Southeast 479 551 33,000  Level FlightAware
03:26AM 5.2110 -72.4920 140° Southeast 479 551 33,000  Level FlightAware
03:27AM 5.1580 -72.4500 142° Southeast 479 551 33,000  Level FlightAware
03:27AM 5.1050 -72.4070 141° Southeast 479 551 33,000  Level FlightAware
03:28AM 5.0530 -72.3640 141° Southeast 479 551 33,000  Level FlightAware
03:28AM 5.0000 -72.3210 141° Southeast 479 551 33,000  Level FlightAware
03:29AM 4.9470 -72.2780 141° Southeast 479 551 33,000  Level FlightAware
03:30AM 4.8950 -72.2350 141° Southeast 479 551 33,000  Level FlightAware
03:30AM 4.8420 -72.1930 142° Southeast 479 551 33,000  Level FlightAware
03:31AM 4.7890 -72.1500 141° Southeast 479 551 33,000  Level FlightAware
03:31AM 4.7540 -72.1210 140° Southeast 479 551 33,000  Level FlightAware
03:32AM 4.7010 -72.0780 141° Southeast 479 551 33,000  Level FlightAware
03:32AM 4.6490 -72.0360 141° Southeast 479 551 33,000  Level FlightAware
03:33AM 4.5960 -71.9930 141° Southeast 479 551 33,000  Level FlightAware
03:34AM 4.5430 -71.9500 141° Southeast 479 551 33,000  Level FlightAware
03:36AM 4.3523 -71.7867 139° Southeast  Level Estimated
03:37AM 4.2521 -71.7009 140° Southeast  Level Estimated
03:38AM 4.1519 -71.6151 140° Southeast  Level Estimated
03:39AM 4.0517 -71.5293 140° Southeast  Level Estimated
03:40AM 3.9515 -71.4436 140° Southeast  Level Estimated
03:41AM 3.8513 -71.3579 140° Southeast  Level Estimated
03:42AM 3.7510 -71.2722 140° Southeast  Level Estimated
03:43AM 3.6508 -71.1865 140° Southeast  Level Estimated
03:44AM 3.5505 -71.1009 140° Southeast  Level Estimated
03:45AM 3.4503 -71.0153 140° Southeast  Level Estimated
03:46AM 3.3500 -70.9296 140° Southeast  Level Estimated
03:47AM 3.2497 -70.8440 140° Southeast  Level Estimated
03:48AM 3.1494 -70.7585 140° Southeast  Level Estimated
03:49AM 3.0491 -70.6729 140° Southeast  Level Estimated
03:50AM 2.9488 -70.5874 140° Southeast  Level Estimated
03:51AM 2.8485 -70.5018 140° Southeast  Level Estimated
03:52AM 2.7482 -70.4163 140° Southeast  Level Estimated
03:53AM 2.6479 -70.3308 140° Southeast  Level Estimated
03:54AM 2.5476 -70.2453 140° Southeast  Level Estimated
03:55AM 2.4472 -70.1599 140° Southeast  Level Estimated
03:56AM 2.3469 -70.0744 140° Southeast  Level Estimated
03:57AM 2.2466 -69.9889 140° Southeast  Level Estimated
03:58AM 2.1462 -69.9035 140° Southeast  Level Estimated
03:59AM 2.0459 -69.8181 140° Southeast  Level Estimated
04:00AM 1.9455 -69.7327 140° Southeast  Level Estimated
04:01AM 1.8451 -69.6472 140° Southeast  Level Estimated
04:02AM 1.7448 -69.5618 140° Southeast  Level Estimated
04:03AM 1.6444 -69.4764 140° Southeast  Level Estimated
04:04AM 1.5440 -69.3911 140° Southeast  Level Estimated
04:05AM 1.4437 -69.3057 140° Southeast  Level Estimated
04:06AM 1.3433 -69.2203 140° Southeast  Level Estimated
04:07AM 1.2429 -69.1350 140° Southeast  Level Estimated
04:08AM 1.1425 -69.0496 140° Southeast  Level Estimated
04:09AM 1.0422 -68.9643 140° Southeast  Level Estimated
04:10AM 0.9418 -68.8790 140° Southeast  Level Estimated
04:11AM 0.8414 -68.7936 140° Southeast  Level Estimated
04:12AM 0.7410 -68.7083 140° Southeast  Level Estimated
04:13AM 0.6406 -68.6230 140° Southeast  Level Estimated
04:14AM 0.5402 -68.5377 140° Southeast  Level Estimated
04:15AM 0.4398 -68.4523 140° Southeast  Level Estimated
04:16AM 0.3394 -68.3670 140° Southeast  Level Estimated
04:17AM 0.2390 -68.2817 140° Southeast  Level Estimated
04:18AM 0.1386 -68.1964 140° Southeast  Level Estimated
04:19AM 0.0382 -68.1111 140° Southeast  Level Estimated
04:20AM -0.0622 -68.0258 140° Southeast  Level Estimated
04:21AM -0.1626 -67.9405 140° Southeast  Level Estimated
04:22AM -0.2630 -67.8551 140° Southeast  Level Estimated
04:23AM -0.3634 -67.7698 140° Southeast  Level Estimated
04:24AM -0.4638 -67.6845 140° Southeast  Level Estimated
04:25AM -0.5642 -67.5992 140° Southeast  Level Estimated
04:26AM -0.6646 -67.5139 140° Southeast  Level Estimated
04:27AM -0.7650 -67.4286 140° Southeast  Level Estimated
04:28AM -0.8654 -67.3432 140° Southeast  Level Estimated
04:29AM -0.9658 -67.2579 140° Southeast  Level Estimated
04:30AM -1.0662 -67.1726 140° Southeast  Level Estimated
04:31AM -1.1666 -67.0872 140° Southeast  Level Estimated
04:32AM -1.2669 -67.0019 140° Southeast  Level Estimated
04:33AM -1.3673 -66.9165 140° Southeast  Level Estimated
04:34AM -1.4677 -66.8311 140° Southeast  Level Estimated
04:35AM -1.5681 -66.7458 140° Southeast  Level Estimated
04:36AM -1.6684 -66.6604 140° Southeast  Level Estimated
04:37AM -1.7688 -66.5750 140° Southeast  Level Estimated
04:38AM -1.8692 -66.4896 140° Southeast  Level Estimated
04:39AM -1.9695 -66.4042 140° Southeast  Level Estimated
04:40AM -2.0699 -66.3188 140° Southeast  Level Estimated
04:41AM -2.1702 -66.2334 140° Southeast  Level Estimated
04:42AM -2.2706 -66.1479 140° Southeast  Level Estimated
04:43AM -2.3709 -66.0625 140° Southeast  Level Estimated
04:44AM -2.4712 -65.9770 140° Southeast  Level Estimated
04:45AM -2.5716 -65.8915 140° Southeast  Level Estimated
04:46AM -2.6719 -65.8060 140° Southeast  Level Estimated
04:47AM -2.7722 -65.7205 140° Southeast  Level Estimated
04:48AM -2.8725 -65.6350 140° Southeast  Level Estimated
04:49AM -2.9728 -65.5495 140° Southeast  Level Estimated
04:50AM -3.0731 -65.4639 140° Southeast  Level Estimated
04:51AM -3.1734 -65.3784 140° Southeast  Level Estimated
04:52AM -3.2737 -65.2928 140° Southeast  Level Estimated
04:53AM -3.3740 -65.2072 140° Southeast  Level Estimated
04:54AM -3.4742 -65.1216 140° Southeast  Level Estimated
04:55AM -3.5745 -65.0359 140° Southeast  Level Estimated
04:56AM -3.6748 -64.9503 140° Southeast  Level Estimated
04:57AM -3.7750 -64.8646 140° Southeast  Level Estimated
04:58AM -3.8752 -64.7789 140° Southeast  Level Estimated
04:59AM -3.9755 -64.6932 140° Southeast  Level Estimated
05:00AM -4.0757 -64.6075 140° Southeast  Level Estimated
05:01AM -4.1759 -64.5217 140° Southeast  Level Estimated
05:02AM -4.2761 -64.4359 140° Southeast  Level Estimated
05:03AM -4.3763 -64.3501 140° Southeast  Level Estimated
05:04AM -4.4765 -64.2643 140° Southeast  Level Estimated
05:05AM -4.5766 -64.1785 139° Southeast  Level Estimated
05:06AM -4.6768 -64.0926 139° Southeast  Level Estimated
05:07AM -4.7769 -64.0067 139° Southeast  Level Estimated
05:08AM -4.8771 -63.9208 139° Southeast  Level Estimated
05:09AM -4.9772 -63.8348 139° Southeast  Level Estimated
05:10AM -5.0773 -63.7489 139° Southeast  Level Estimated
05:11AM -5.1775 -63.6629 139° Southeast  Level Estimated
05:12AM -5.2776 -63.5768 139° Southeast  Level Estimated
05:13AM -5.3776 -63.4908 139° Southeast  Level Estimated
05:14AM -5.4777 -63.4047 139° Southeast  Level Estimated
05:15AM -5.5778 -63.3186 139° Southeast  Level Estimated
05:16AM -5.6778 -63.2324 139° Southeast  Level Estimated
05:17AM -5.7778 -63.1463 139° Southeast  Level Estimated
05:18AM -5.8779 -63.0601 139° Southeast  Level Estimated
05:19AM -5.9779 -62.9739 139° Southeast  Level Estimated
05:20AM -6.0779 -62.8876 139° Southeast  Level Estimated
05:21AM -6.1778 -62.8013 139° Southeast  Level Estimated
05:22AM -6.2778 -62.7150 139° Southeast  Level Estimated
05:23AM -6.3778 -62.6286 139° Southeast  Level Estimated
05:24AM -6.4777 -62.5422 139° Southeast  Level Estimated
05:25AM -6.5776 -62.4558 139° Southeast  Level Estimated
05:26AM -6.6775 -62.3693 139° Southeast  Level Estimated
05:27AM -6.7774 -62.2828 139° Southeast  Level Estimated
05:28AM -6.8773 -62.1963 139° Southeast  Level Estimated
05:29AM -6.9772 -62.1097 139° Southeast  Level Estimated
05:30AM -7.0770 -62.0231 139° Southeast  Level Estimated
05:31AM -7.1768 -61.9365 139° Southeast  Level Estimated
05:32AM -7.2766 -61.8498 139° Southeast  Level Estimated
05:33AM -7.3765 -61.7631 139° Southeast  Level Estimated
05:34AM -7.4762 -61.6763 139° Southeast  Level Estimated
05:35AM -7.5760 -61.5895 139° Southeast  Level Estimated
05:36AM -7.6757 -61.5027 139° Southeast  Level Estimated
05:37AM -7.7755 -61.4158 139° Southeast  Level Estimated
05:38AM -7.8752 -61.3289 139° Southeast  Level Estimated
05:39AM -7.9749 -61.2419 139° Southeast  Level Estimated
05:40AM -8.0745 -61.1549 139° Southeast  Level Estimated
05:41AM -8.1742 -61.0678 139° Southeast  Level Estimated
05:42AM -8.2739 -60.9808 139° Southeast  Level Estimated
05:43AM -8.3733 -60.8938 139° Southeast  Level Estimated
05:44AM -8.4727 -60.8067 139° Southeast  Level Estimated
05:45AM -8.5721 -60.7197 139° Southeast  Level Estimated
05:46AM -8.6715 -60.6325 139° Southeast  Level Estimated
05:47AM -8.7709 -60.5454 139° Southeast  Level Estimated
05:48AM -8.8702 -60.4581 139° Southeast  Level Estimated
05:49AM -8.9696 -60.3709 139° Southeast  Level Estimated
05:50AM -9.0689 -60.2836 139° Southeast  Level Estimated
05:51AM -9.1682 -60.1962 139° Southeast  Level Estimated
05:52AM -9.2675 -60.1088 139° Southeast  Level Estimated
05:53AM -9.3667 -60.0213 139° Southeast  Level Estimated
05:54AM -9.4659 -59.9338 139° Southeast  Level Estimated
05:55AM -9.5651 -59.8463 139° Southeast  Level Estimated
05:56AM -9.6643 -59.7587 139° Southeast  Level Estimated
05:57AM -9.7635 -59.6710 139° Southeast  Level Estimated
05:58AM -9.8626 -59.5833 139° Southeast  Level Estimated
05:59AM -9.9617 -59.4955 139° Southeast  Level Estimated
06:00AM -10.0608 -59.4077 139° Southeast  Level Estimated
06:01AM -10.1599 -59.3198 139° Southeast  Level Estimated
06:02AM -10.2590 -59.2319 139° Southeast  Level Estimated
06:03AM -10.3578 -59.1441 139° Southeast  Level Estimated
06:04AM -10.4566 -59.0562 139° Southeast  Level Estimated
06:05AM -10.5555 -58.9682 139° Southeast  Level Estimated
06:06AM -10.6542 -58.8802 139° Southeast  Level Estimated
06:07AM -10.7530 -58.7922 139° Southeast  Level Estimated
06:08AM -10.8517 -58.7041 139° Southeast  Level Estimated
06:09AM -10.9504 -58.6159 139° Southeast  Level Estimated
06:10AM -11.0491 -58.5277 139° Southeast  Level Estimated
06:11AM -11.1478 -58.4394 139° Southeast  Level Estimated
06:12AM -11.2464 -58.3510 139° Southeast  Level Estimated
06:13AM -11.3450 -58.2626 139° Southeast  Level Estimated
06:14AM -11.4436 -58.1741 139° Southeast  Level Estimated
06:15AM -11.5421 -58.0856 139° Southeast  Level Estimated
06:16AM -11.6407 -57.9970 139° Southeast  Level Estimated
06:17AM -11.7392 -57.9083 139° Southeast  Level Estimated
06:18AM -11.8376 -57.8196 139° Southeast  Level Estimated
06:19AM -11.9361 -57.7308 139° Southeast  Level Estimated
06:20AM -12.0345 -57.6420 139° Southeast  Level Estimated
06:21AM -12.1329 -57.5531 139° Southeast  Level Estimated
06:22AM -12.2312 -57.4641 139° Southeast  Level Estimated
06:23AM -12.3296 -57.3750 139° Southeast  Level Estimated
06:24AM -12.4279 -57.2859 138° Southeast  Level Estimated
06:25AM -12.5261 -57.1967 138° Southeast  Level Estimated
06:26AM -12.6244 -57.1075 138° Southeast  Level Estimated
06:27AM -12.7226 -57.0182 138° Southeast  Level Estimated
06:28AM -12.8208 -56.9288 138° Southeast  Level Estimated
06:29AM -12.9189 -56.8393 138° Southeast  Level Estimated
06:30AM -13.0170 -56.7498 138° Southeast  Level Estimated
06:31AM -13.1151 -56.6602 138° Southeast  Level Estimated
06:32AM -13.2132 -56.5705 138° Southeast  Level Estimated
06:33AM -13.3112 -56.4808 138° Southeast  Level Estimated
06:34AM -13.4092 -56.3909 138° Southeast  Level Estimated
06:35AM -13.5072 -56.3011 138° Southeast  Level Estimated
06:36AM -13.6051 -56.2111 138° Southeast  Level Estimated
06:37AM -13.7030 -56.1211 138° Southeast  Level Estimated
06:38AM -13.8009 -56.0309 138° Southeast  Level Estimated
06:39AM -13.8987 -55.9408 138° Southeast  Level Estimated
06:40AM -13.9965 -55.8505 138° Southeast  Level Estimated
06:41AM -14.0943 -55.7602 138° Southeast  Level Estimated
06:42AM -14.1920 -55.6697 138° Southeast  Level Estimated
06:43AM -14.2898 -55.5792 138° Southeast  Level Estimated
06:44AM -14.3874 -55.4887 138° Southeast  Level Estimated
06:45AM -14.4851 -55.3980 138° Southeast  Level Estimated
06:45AM -14.7260 -55.1360 138° Southeast 483 556 35,000  Level FlightAware
06:45AM -14.7750 -55.0850 135° Southeast 483 556 35,000  Level FlightAware
06:46AM -14.5827 -55.3073 138° Southeast  Level Estimated
06:46AM -14.8240 -55.0350 135° Southeast 483 556 35,000  Level FlightAware
06:47AM -14.8720 -54.9850 135° Southeast 483 556 35,000  Level FlightAware
06:47AM -14.9200 -54.9350 135° Southeast 483 556 35,000  Level FlightAware
06:48AM -14.9690 -54.8850 135° Southeast 483 556 35,000  Level FlightAware
06:48AM -15.0170 -54.8350 135° Southeast 483 556 35,000  Level FlightAware
06:49AM -15.0650 -54.7840 134° Southeast 483 556 35,000  Level FlightAware
06:50AM -15.1150 -54.7330 135° Southeast 483 556 35,000  Level FlightAware
06:50AM -15.1630 -54.6830 135° Southeast 483 556 35,000  Level FlightAware
06:51AM -15.2120 -54.6330 135° Southeast 483 556 35,000  Level FlightAware
06:51AM -15.2620 -54.5810 135° Southeast 483 556 35,000  Level FlightAware
06:52AM -15.3230 -54.5170 135° Southeast 483 556 35,000  Level FlightAware
06:53AM -15.3730 -54.4660 135° Southeast 483 556 35,000  Level FlightAware
06:53AM -15.4210 -54.4160 135° Southeast 483 556 35,000  Level FlightAware
06:54AM -15.4700 -54.3650 135° Southeast 483 556 35,000  Level FlightAware
06:55AM -15.5180 -54.3150 135° Southeast 483 556 35,000  Level FlightAware
06:57AM -15.6990 -54.1468 138° Southeast  Level Estimated
06:58AM -15.7967 -54.0557 138° Southeast  Level Estimated
06:59AM -15.8945 -53.9645 138° Southeast  Level Estimated
07:00AM -15.9921 -53.8733 138° Southeast  Level Estimated
07:01AM -16.0898 -53.7820 138° Southeast  Level Estimated
07:02AM -16.1874 -53.6906 138° Southeast  Level Estimated
07:03AM -16.2850 -53.5990 138° Southeast  Level Estimated
07:04AM -16.3825 -53.5074 138° Southeast  Level Estimated
07:05AM -16.4800 -53.4157 138° Southeast  Level Estimated
07:06AM -16.5774 -53.3240 138° Southeast  Level Estimated
07:07AM -16.6749 -53.2321 138° Southeast  Level Estimated
07:08AM -16.7722 -53.1401 138° Southeast  Level Estimated
07:09AM -16.8696 -53.0480 138° Southeast  Level Estimated
07:10AM -16.9668 -52.9559 138° Southeast  Level Estimated
07:11AM -17.0641 -52.8636 138° Southeast  Level Estimated
07:12AM -17.1613 -52.7713 138° Southeast  Level Estimated
07:13AM -17.2585 -52.6788 138° Southeast  Level Estimated
07:14AM -17.3556 -52.5863 138° Southeast  Level Estimated
07:15AM -17.4527 -52.4936 138° Southeast  Level Estimated
07:16AM -17.5497 -52.4009 138° Southeast  Level Estimated
07:17AM -17.6467 -52.3080 138° Southeast  Level Estimated
07:18AM -17.7437 -52.2151 138° Southeast  Level Estimated
07:19AM -17.8406 -52.1221 138° Southeast  Level Estimated
07:20AM -17.9374 -52.0289 138° Southeast  Level Estimated
07:21AM -18.0342 -51.9356 138° Southeast  Level Estimated
07:22AM -18.1310 -51.8423 137° Southeast  Level Estimated
07:23AM -18.2277 -51.7489 137° Southeast  Level Estimated
07:24AM -18.3244 -51.6553 137° Southeast  Level Estimated
07:25AM -18.4211 -51.5616 137° Southeast  Level Estimated
07:26AM -18.5177 -51.4679 137° Southeast  Level Estimated
07:27AM -18.6142 -51.3740 137° Southeast  Level Estimated
07:27AM -18.2160 -50.4720 137° Southeast 506 582 35,000  Level FlightAware
07:28AM -18.7107 -51.2800 137° Southeast  Level Estimated
07:28AM -18.2510 -50.3910 114° Southeast 502 578 35,000  Level FlightAware
07:29AM -18.2860 -50.3220 118° Southeast 499 574 35,000  Level FlightAware
07:29AM -18.3270 -50.2470 120° Southeast 497 572 35,000  Level FlightAware
07:30AM -18.3720 -50.1730 123° Southeast 498 573 35,000  Level FlightAware
07:30AM -18.4170 -50.1010 123° Southeast 501 577 35,000  Level FlightAware
07:31AM -18.4600 -50.0310 123° Southeast 503 579 35,000  Level FlightAware
07:32AM -18.5060 -49.9570 123° Southeast 503 579 35,000  Level FlightAware
07:32AM -18.5490 -49.8880 123° Southeast 500 575 35,000  Level FlightAware
07:33AM -18.5940 -49.8140 123° Southeast 499 574 35,000  Level FlightAware
07:33AM -18.6440 -49.7430 127° Southeast 498 573 35,000  Level FlightAware
07:34AM -18.6890 -49.6820 128° Southeast 499 574 35,000  Level FlightAware
07:34AM -18.7400 -49.6120 128° Southeast 500 575 35,000  Level FlightAware
07:35AM -18.7920 -49.5420 128° Southeast 501 577 35,000  Level FlightAware
07:36AM -18.8390 -49.4760 127° Southeast 503 579 35,000  Level FlightAware
07:36AM -18.8890 -49.4050 127° Southeast 504 580 35,000  Level FlightAware
07:37AM -18.9300 -49.3390 123° Southeast 505 581 35,000  Level FlightAware
07:37AM -18.9780 -49.2600 123° Southeast 507 583 35,000  Level FlightAware
07:38AM -19.0160 -49.1830 118° Southeast 510 587 35,000  Level FlightAware
07:39AM -19.0500 -49.1090 116° Southeast 510 587 35,000  Level FlightAware
07:39AM -19.0880 -49.0290 117° Southeast 511 588 35,000  Level FlightAware
07:40AM -19.1260 -48.9460 116° Southeast 513 590 35,000  Level FlightAware
07:40AM -19.1580 -48.8760 116° Southeast 512 589 35,000  Level FlightAware
07:41AM -19.1940 -48.7930 115° Southeast 512 589 35,000  Level FlightAware
07:41AM -19.2300 -48.7110 115° Southeast 514 592 35,000  Level FlightAware
07:42AM -19.2660 -48.6300 115° Southeast 517 595 35,000  Level FlightAware
07:43AM -19.2980 -48.5560 115° Southeast 518 596 35,000  Level FlightAware
07:43AM -19.3350 -48.4670 114° Southeast 519 597 35,000  Level FlightAware
07:44AM -19.3750 -48.3870 118° Southeast 517 595 35,000  Level FlightAware
07:44AM -19.4120 -48.3140 118° Southeast 517 595 35,000  Level FlightAware
07:45AM -19.4530 -48.2340 119° Southeast 515 593 35,000  Level FlightAware
07:46AM -19.4930 -48.1560 119° Southeast 514 592 35,000  Level FlightAware
07:46AM -19.5300 -48.0840 119° Southeast 515 593 35,000  Level FlightAware
07:47AM -19.5710 -48.0050 119° Southeast 516 594 35,000  Level FlightAware
07:47AM -19.6170 -47.9290 123° Southeast 513 590 35,000  Level FlightAware
07:48AM -19.6580 -47.8610 123° Southeast 513 590 35,000  Level FlightAware
07:48AM -19.7050 -47.7830 123° Southeast 512 589 35,000  Level FlightAware
07:49AM -19.7490 -47.7100 123° Southeast 511 588 35,000 -180 Level FlightAware
07:50AM -19.7960 -47.6310 122° Southeast 504 580 34,800 -720 Descending FlightAware
07:50AM -19.8390 -47.5630 124° Southeast 501 577 34,200 -720 Descending FlightAware
07:51AM -19.8970 -47.4980 134° Southeast 493 567 34,000 -180 Descending FlightAware
07:51AM -19.9530 -47.4440 138° Southeast 493 567 34,000  Level FlightAware
07:52AM -20.0110 -47.3890 138° Southeast 493 567 34,000  Level FlightAware
07:53AM -20.0760 -47.3270 138° Southeast 495 570 34,000  Level FlightAware
07:53AM -20.1310 -47.2740 138° Southeast 496 571 34,000  Level FlightAware
07:54AM -20.1970 -47.2120 139° Southeast 495 570 34,000  Level FlightAware
07:54AM -20.2560 -47.1690 146° Southeast 489 563 34,000  Level FlightAware
07:55AM -20.3270 -47.1240 149° Southeast 485 558 34,000  Level FlightAware
07:55AM -20.3710 -47.1050 158° South 479 551 34,000  Level FlightAware
07:56AM -20.4140 -47.0970 170° South 475 547 34,000  Level FlightAware
07:56AM -20.4930 -47.0990 181° South 471 542 34,000  Level FlightAware
07:57AM -20.5630 -47.1020 182° South 469 540 34,000  Level FlightAware
07:57AM -20.6440 -47.1090 185° South 462 532 34,000  Level FlightAware
07:58AM -20.7160 -47.1190 187° South 460 529 34,000  Level FlightAware
07:59AM -20.7930 -47.1320 189° South 461 531 34,000  Level FlightAware
07:59AM -20.8660 -47.1450 189° South 462 532 34,000  Level FlightAware
08:00AM -20.9380 -47.1580 190° South 465 535 34,000  Level FlightAware
08:00AM -21.0120 -47.1710 189° South 462 532 34,000  Level FlightAware
08:01AM -21.0910 -47.1850 189° South 460 529 34,000  Level FlightAware
08:01AM -21.1570 -47.1970 190° South 463 533 34,000  Level FlightAware
08:02AM -21.2340 -47.2110 190° South 462 532 34,000  Level FlightAware
08:03AM -21.3110 -47.2240 189° South 463 533 34,000  Level FlightAware
08:03AM -21.3810 -47.2370 190° South 466 536 34,000  Level FlightAware
08:04AM -21.4640 -47.2510 189° South 471 542 34,000  Level FlightAware
08:04AM -21.5420 -47.2650 189° South 471 542 34,000  Level FlightAware
08:05AM -21.6100 -47.2780 190° South 474 545 34,000 -660 Level FlightAware
08:05AM -21.6840 -47.2910 189° South 477 549 33,300 -1,200 Descending FlightAware
08:06AM -21.7670 -47.3050 189° South 469 540 32,600 -1,560 Descending FlightAware
08:07AM -21.8360 -47.3180 190° South 463 533 31,500 -2,040 Descending FlightAware
08:07AM -21.9110 -47.3310 189° South 457 526 30,300 -1,860 Descending FlightAware
08:08AM -22.0080 -47.3330 181° South 464 534 28,900 -1,860 Descending FlightAware
08:09AM -22.0850 -47.3030 160° South 464 534 27,700 -1,980 Descending FlightAware
08:09AM -22.1560 -47.2740 159° South 457 526 26,600 -1,860 Descending FlightAware
08:10AM -22.2280 -47.2440 159° South 450 518 25,500 -1,860 Descending FlightAware
08:10AM -22.2880 -47.2190 159° South 446 513 24,500 -1,620 Descending FlightAware
08:11AM -22.3430 -47.1970 160° South 442 509 23,700 -1,800 Descending FlightAware
08:12AM -22.4280 -47.1610 159° South 433 498 22,400 -2,040 Descending FlightAware
08:12AM -22.4940 -47.1330 159° South 426 490 21,300 -1,800 Descending FlightAware
08:13AM -22.5510 -47.1090 159° South 414 476 20,400 -1,680 Descending FlightAware
08:13AM -22.6140 -47.0820 158° South 400 460 19,400 -1,740 Descending FlightAware
08:14AM -22.6730 -47.0570 159° South 388 447 18,400 -1,740 Descending FlightAware
08:14AM -22.7330 -47.0320 159° South 375 432 17,400 -1,620 Descending FlightAware
08:15AM -22.7810 -47.0120 159° South 359 413 16,600 -1,560 Descending FlightAware
08:16AM -22.8370 -46.9890 159° South 346 398 15,600 -1,560 Descending FlightAware
08:16AM -22.8930 -46.9650 158° South 339 390 14,700 -1,500 Descending FlightAware
08:17AM -22.9450 -46.9430 159° South 335 386 13,800 -1,260 Descending FlightAware
08:17AM -22.9960 -46.9220 159° South 313 360 13,200 -1,380 Descending FlightAware
08:18AM -23.0380 -46.9040 158° South 304 350 12,300 -1,800 Descending FlightAware
08:19AM -23.0860 -46.8840 159° South 302 348 11,200 -1,620 Descending FlightAware
08:19AM -23.1330 -46.8640 159° South 300 345 10,400 -1,320 Descending FlightAware
08:20AM -23.1640 -46.8510 159° South 298 343 9,900 -1,140 Descending FlightAware
08:20AM -23.1930 -46.8390 159° South 292 336 9,500 -1,140 Descending FlightAware
08:20AM -23.2120 -46.8310 159° South 285 328 9,200 -1,260 Descending FlightAware
08:21AM -23.2370 -46.8200 158° South 277 319 8,800 -1,140 Descending FlightAware
08:21AM -23.2630 -46.8090 159° South 268 308 8,400 -1,140 Descending FlightAware
08:21AM -23.2860 -46.7990 158° South 266 306 8,000 -1,200 Descending FlightAware
08:22AM -23.3100 -46.7890 159° South 265 305 7,600 -1,140 Descending FlightAware
08:22AM -23.3300 -46.7810 160° South 264 304 7,300 -900 Descending FlightAware
08:22AM -23.3500 -46.7720 158° South 257 296 7,100 -480 Descending FlightAware
08:23AM -23.3720 -46.7610 155° Southeast 246 283 7,000 -420 Descending FlightAware
08:23AM -23.3840 -46.7520 145° Southeast 240 276 6,900 -660 Descending FlightAware
08:23AM -23.4030 -46.7340 139° Southeast 229 264 6,600 -840 Descending FlightAware
08:23AM -23.4190 -46.7190 139° Southeast 225 259 6,300 -960 Descending FlightAware
08:24AM -23.4350 -46.7040 139° Southeast 218 251 6,000 -660 Descending FlightAware
08:24AM -23.4470 -46.6910 135° Southeast 211 243 5,900 -660 Descending FlightAware
08:24AM -23.4520 -46.6830 124° Southeast 210 242 5,700 -1,200 Descending FlightAware
08:25AM -23.4590 -46.6670 115° Southeast 210 242 5,400 -1,020 Descending FlightAware
08:25AM -23.4670 -46.6470 114° Southeast 209 241 5,100 -900 Descending FlightAware
08:25AM -23.4740 -46.6270 111° Southeast 208 239 4,800 -960 Descending FlightAware
08:25AM -23.4740 -46.6230 90° East 206 237 4,700 -240 Descending FlightAware
08:26AM -23.4740 -46.6010 90° East 206 237 4,700 -1,020 Level FlightAware
08:26AM -23.4670 -46.5920 50° Northeast 201 231 4,200 -2,040 Descending FlightAware
08:26AM -23.4620 -46.5720 75° East 191 220 3,800 -1,080 Descending FlightAware
08:26AM -23.4570 -46.5550 72° East 169 194 3,500 -840 Descending FlightAware
08:27AM -23.4520 -46.5360 74° East 159 183 3,200 -840 Descending FlightAware
08:27AM -23.4480 -46.5210 74° East 158 182 2,900 -780 Descending FlightAware
08:28AM -23.4440 -46.5060 74° East 155 178 2,700 -780 Descending FlightAware
08:28AM -23.4390 -46.4870 74° East 149 171 2,300 -900 Descending FlightAware
08:28AM -23.4370 -46.4790 75° East 140 161 -9,900 Descending FlightAware
08:29AM -23.4320 -46.4630 71° East 140 161  Level FlightAware